Time;durP1;ratioP1;P1;durP2;ratioP2;P2;SDS_P1;SDS_P2;PMS_P1;PMS_P2;Temp;Humidity;BMP_temperature;BMP_pressure;BME280_temperature;BME280_humidity;BME280_pressure;Samples;Min_cycle;Max_cycle;Signal;HPM_P1;HPM_P2
2022/08/12 00:44:41;;;;;;;8.15;5.47;;;18.50;99.90;;;;;;5092422;28;20506;-81
2022/08/12 00:47:07;;;;;;;9.13;6.13;;;18.40;99.90;;;;;;5092428;28;20052;-80
2022/08/12 00:49:34;;;;;;;14.93;6.05;;;18.30;99.90;;;;;;5092599;28;20036;-83
2022/08/12 00:52:05;;;;;;;12.57;7.28;;;18.30;99.90;;;;;;5092739;28;20051;-84
2022/08/12 00:54:35;;;;;;;10.40;7.00;;;18.30;99.90;;;;;;5092465;28;20502;-87
2022/08/12 00:57:04;;;;;;;11.20;7.70;;;18.20;99.90;;;;;;5092297;28;20044;-87
2022/08/12 00:59:31;;;;;;;10.43;6.95;;;18.20;99.90;;;;;;5092466;28;20048;-82
2022/08/12 01:02:00;;;;;;;10.30;7.97;;;18.10;99.90;;;;;;5057266;28;20182;-85
2022/08/12 01:12:43;;;;;;;12.15;8.18;;;18.20;99.90;;;;;;5074164;28;20056;-81
2022/08/12 01:15:12;;;;;;;14.45;7.38;;;18.20;99.90;;;;;;5091758;28;20062;-83
2022/08/12 01:17:41;;;;;;;10.10;7.13;;;18.20;99.90;;;;;;5073997;28;20138;-80
2022/08/12 01:20:11;;;;;;;12.85;7.13;;;18.10;99.90;;;;;;5092347;28;20094;-81
2022/08/12 01:23:19;;;;;;;10.00;7.25;;;18.10;99.90;;;;;;5091919;28;20055;-84
2022/08/12 01:25:49;;;;;;;11.43;6.80;;;18.20;99.90;;;;;;4990305;28;20153;-85
2022/08/12 01:28:16;;;;;;;10.93;7.40;;;18.10;99.90;;;;;;4990102;28;20097;-82
2022/08/12 01:30:43;;;;;;;10.25;6.80;;;18.10;99.90;;;;;;4989847;28;20581;-83
2022/08/12 01:33:15;;;;;;;10.15;6.57;;;18.10;99.90;;;;;;4985024;28;20526;-82
2022/08/12 01:35:47;;;;;;;13.00;7.55;;;18.10;99.90;;;;;;4954121;28;20051;-83
2022/08/12 01:38:19;;;;;;;8.07;6.45;;;18.10;99.90;;;;;;4970384;28;20125;-85
2022/08/12 01:40:46;;;;;;;10.85;7.03;;;18.10;99.90;;;;;;4954400;28;20067;-84
2022/08/12 01:43:20;;;;;;;10.68;6.95;;;18.10;99.90;;;;;;4970956;28;20097;-82
2022/08/12 01:46:13;;;;;;;12.32;6.75;;;18.00;99.90;;;;;;4954453;28;20498;-83
2022/08/12 01:48:51;;;;;;;11.80;6.68;;;18.00;99.90;;;;;;4893857;29;20057;-83
2022/08/12 01:51:39;;;;;;;15.60;6.78;;;18.00;99.90;;;;;;4893562;29;20588;-81
2022/08/12 01:54:12;;;;;;;9.15;6.40;;;18.00;99.90;;;;;;4877674;29;20115;-76
2022/08/12 01:56:42;;;;;;;12.80;6.25;;;18.00;99.90;;;;;;4893838;29;20060;-84
2022/08/12 02:01:57;;;;;;;10.38;6.13;;;18.10;99.90;;;;;;4920045;28;20170;-75
2022/08/12 02:13:22;;;;;;;9.77;5.95;;;17.80;99.90;;;;;;4987931;28;20050;-80
2022/08/12 02:15:57;;;;;;;10.75;5.80;;;17.80;99.90;;;;;;4972625;28;20065;-76
2022/08/12 02:19:09;;;;;;;8.98;6.10;;;17.70;99.90;;;;;;4989032;28;20069;-76
2022/08/12 02:21:40;;;;;;;7.75;5.65;;;17.70;99.90;;;;;;4989299;28;20062;-75
2022/08/12 02:24:12;;;;;;;10.35;5.85;;;17.70;99.90;;;;;;4973286;28;20058;-75
2022/08/12 02:26:41;;;;;;;9.13;6.15;;;17.60;99.90;;;;;;5082510;28;20079;-80
2022/08/12 02:29:07;;;;;;;9.98;5.75;;;17.60;99.90;;;;;;5072471;28;20122;-75
2022/08/12 02:31:34;;;;;;;7.95;5.57;;;17.60;99.90;;;;;;5090218;28;20052;-77
2022/08/12 02:34:00;;;;;;;10.63;5.93;;;17.60;99.90;;;;;;5090601;28;20052;-81
2022/08/12 02:36:28;;;;;;;10.02;6.32;;;17.50;99.90;;;;;;5090281;28;20047;-75
2022/08/12 02:38:55;;;;;;;6.88;5.70;;;17.40;99.90;;;;;;5090386;28;20406;-75
2022/08/12 02:41:25;;;;;;;9.98;6.18;;;17.40;99.90;;;;;;5090453;28;20132;-75
2022/08/12 02:43:58;;;;;;;8.10;6.25;;;17.30;99.90;;;;;;5090493;28;20090;-75
2022/08/12 02:46:33;;;;;;;8.68;6.10;;;17.20;99.90;;;;;;5089779;28;20077;-75
2022/08/12 02:49:08;;;;;;;7.18;6.00;;;17.20;99.90;;;;;;5089813;28;20075;-75
2022/08/12 02:51:37;;;;;;;;;;;17.00;99.90;;;;;;5093885;28;20051;-73
2022/08/12 02:54:04;;;;;;;8.93;6.35;;;17.00;99.90;;;;;;5110746;28;19967;-75
2022/08/12 02:56:30;;;;;;;10.10;6.25;;;16.90;99.90;;;;;;5081392;28;20051;-74
2022/08/12 02:58:57;;;;;;;7.72;5.78;;;16.90;99.90;;;;;;5090188;28;20082;-78
2022/08/12 03:01:32;;;;;;;8.52;6.50;;;16.90;99.90;;;;;;5090563;28;20058;-82
2022/08/12 03:04:06;;;;;;;9.57;6.53;;;16.80;99.90;;;;;;5090032;28;20124;-81
2022/08/12 03:06:38;;;;;;;7.72;6.45;;;16.70;99.90;;;;;;5090045;28;20047;-83
2022/08/12 03:09:05;;;;;;;9.02;6.70;;;16.70;99.90;;;;;;5071368;28;20088;-82
2022/08/12 03:11:39;;;;;;;9.30;6.75;;;16.70;99.90;;;;;;5089735;28;20109;-82
2022/08/12 03:14:09;;;;;;;10.75;6.80;;;16.60;99.90;;;;;;5090224;28;20105;-82
2022/08/12 03:16:38;;;;;;;11.25;7.40;;;16.60;99.90;;;;;;5089986;28;20055;-82
2022/08/12 03:19:07;;;;;;;12.75;6.78;;;16.60;99.90;;;;;;5054301;28;20085;-83
2022/08/12 03:21:36;;;;;;;8.90;6.63;;;16.70;99.90;;;;;;5089040;28;20048;-80
2022/08/12 03:24:04;;;;;;;10.32;7.03;;;16.60;99.90;;;;;;5071904;28;20535;-80
2022/08/12 03:26:34;;;;;;;10.90;6.93;;;16.60;99.90;;;;;;5089592;28;20180;-82
2022/08/12 03:29:05;;;;;;;11.85;6.55;;;16.60;99.90;;;;;;5098681;28;20036;-79
2022/08/12 03:31:32;;;;;;;7.63;6.30;;;16.60;99.90;;;;;;5098561;28;20047;-83
2022/08/12 03:34:08;;;;;;;10.07;6.70;;;16.60;99.90;;;;;;5092875;28;20044;-80
2022/08/12 03:36:36;;;;;;;10.57;6.80;;;16.60;99.90;;;;;;5071688;28;20044;-83
2022/08/12 03:42:05;;;;;;;10.07;7.25;;;16.60;99.90;;;;;;5089457;28;20517;-82
2022/08/12 04:01:56;;;;;;;13.68;6.30;;;16.40;99.90;;;;;;4994723;28;20050;-82
2022/08/12 04:04:33;;;;;;;12.40;6.60;;;16.50;99.90;;;;;;5010955;28;20068;-77
2022/08/12 04:07:07;;;;;;;12.52;6.15;;;16.30;99.90;;;;;;5010708;28;20038;-83
2022/08/12 04:09:36;;;;;;;12.43;7.05;;;16.30;99.90;;;;;;5010461;28;20509;-82
2022/08/12 04:14:47;;;;;;;12.85;7.13;;;16.30;99.90;;;;;;4994299;28;20088;-77
2022/08/12 04:17:14;;;;;;;10.85;6.85;;;16.20;99.90;;;;;;5010613;28;20611;-81
2022/08/12 04:19:41;;;;;;;11.93;6.72;;;16.20;99.90;;;;;;5010486;28;20050;-79
2022/08/12 04:22:08;;;;;;;11.63;7.13;;;16.20;99.90;;;;;;5028355;28;20041;-79
2022/08/12 04:24:34;;;;;;;11.70;6.20;;;16.20;99.90;;;;;;5047745;28;20527;-81
2022/08/12 04:27:01;;;;;;;10.23;6.38;;;16.20;99.90;;;;;;5095734;28;20608;-82
2022/08/12 04:29:27;;;;;;;13.85;6.35;;;16.20;99.90;;;;;;5092723;28;20410;-80
2022/08/12 04:31:54;;;;;;;11.98;7.25;;;16.20;99.90;;;;;;5093026;28;20040;-83
2022/08/12 04:34:21;;;;;;;12.40;6.75;;;16.40;99.90;;;;;;5092874;28;20074;-81
2022/08/12 04:36:47;;;;;;;10.07;6.28;;;16.20;99.90;;;;;;5093006;28;20411;-81
2022/08/12 04:39:13;;;;;;;10.50;6.22;;;16.30;99.90;;;;;;5074056;28;20048;-77
2022/08/12 04:41:40;;;;;;;12.27;6.85;;;16.30;99.90;;;;;;5092592;28;20044;-83
2022/08/12 04:44:07;;;;;;;10.88;6.90;;;16.30;99.90;;;;;;5074418;28;20131;-83
2022/08/12 04:46:33;;;;;;;10.93;5.82;;;16.40;99.90;;;;;;5092899;28;20048;-84
2022/08/12 04:49:01;;;;;;;11.80;6.65;;;16.40;99.90;;;;;;5092556;28;20051;-81
2022/08/12 04:51:27;;;;;;;15.23;6.78;;;16.60;99.90;;;;;;5072841;28;20051;-83
2022/08/12 04:53:53;;;;;;;12.18;6.30;;;16.50;99.90;;;;;;5073713;28;20056;-85
2022/08/12 04:56:19;;;;;;;7.90;6.30;;;16.50;99.90;;;;;;5092574;28;20051;-81
2022/08/12 04:58:45;;;;;;;8.00;5.35;;;16.60;99.90;;;;;;5092809;28;20044;-80
2022/08/12 05:01:11;;;;;;;10.38;5.82;;;16.60;99.90;;;;;;5092336;28;20420;-81
2022/08/12 05:03:38;;;;;;;8.40;6.28;;;16.60;99.90;;;;;;5092447;28;20074;-80
2022/08/12 05:06:04;;;;;;;11.43;6.25;;;16.70;99.90;;;;;;5092315;28;20106;-82
2022/08/12 05:08:30;;;;;;;10.88;6.53;;;16.80;99.90;;;;;;5092213;28;20071;-81
2022/08/12 05:10:57;;;;;;;9.98;6.50;;;16.80;99.90;;;;;;5091422;28;20040;-82
2022/08/12 05:13:26;;;;;;;9.85;5.97;;;16.80;99.90;;;;;;5073992;28;20517;-83
2022/08/12 05:15:52;;;;;;;17.95;6.40;;;16.80;99.90;;;;;;5075111;28;20494;-75
2022/08/12 05:18:19;;;;;;;10.15;6.68;;;16.90;99.90;;;;;;5092456;28;20044;-75
2022/08/12 05:20:47;;;;;;;9.23;5.97;;;17.00;99.90;;;;;;5092735;28;20527;-80
2022/08/12 05:23:18;;;;;;;11.32;5.93;;;17.00;99.90;;;;;;5091543;28;20044;-79
2022/08/12 05:25:47;;;;;;;11.02;5.15;;;17.10;99.90;;;;;;5074139;28;20044;-82
2022/08/12 05:28:14;;;;;;;9.35;4.93;;;17.10;99.90;;;;;;5092627;28;20490;-84
2022/08/12 05:30:41;;;;;;;10.75;5.47;;;17.20;99.90;;;;;;5073907;28;20113;-81
2022/08/12 05:33:08;;;;;;;8.75;5.55;;;17.30;99.90;;;;;;5091870;28;20044;-81
2022/08/12 05:35:39;;;;;;;11.20;5.35;;;17.40;99.90;;;;;;5073509;28;20047;-77
2022/08/12 05:40:58;;;;;;;8.95;5.10;;;17.60;99.90;;;;;;5091091;28;20052;-84
2022/08/12 05:43:25;;;;;;;6.95;5.93;;;17.50;99.90;;;;;;5092044;28;20040;-77
2022/08/12 05:45:50;;;;;;;15.55;5.22;;;17.60;99.90;;;;;;5073687;28;20140;-83
2022/08/12 05:48:16;;;;;;;9.93;4.90;;;17.70;99.90;;;;;;5091792;28;20462;-80
2022/08/12 05:50:44;;;;;;;7.78;4.43;;;17.80;99.90;;;;;;5091566;28;20509;-83
2022/08/12 05:53:10;;;;;;;9.52;4.85;;;18.10;99.90;;;;;;5091769;28;20578;-88
2022/08/12 05:55:36;;;;;;;8.63;4.13;;;17.90;99.90;;;;;;5072941;28;20087;-82
2022/08/12 05:58:04;;;;;;;6.13;3.67;;;18.00;99.90;;;;;;5091814;28;20047;-88
2022/08/12 06:00:31;;;;;;;9.88;4.13;;;18.10;99.90;;;;;;5073634;28;20083;-77
2022/08/12 06:03:00;;;;;;;8.02;4.15;;;18.20;99.90;;;;;;5092357;28;20131;-78
2022/08/12 06:05:34;;;;;;;7.05;4.03;;;18.30;99.90;;;;;;5057621;28;20052;-82
2022/08/12 06:08:04;;;;;;;6.40;4.00;;;18.40;99.90;;;;;;5091720;28;20059;-86
2022/08/12 06:10:34;;;;;;;7.63;4.13;;;18.50;99.90;;;;;;5091695;28;20040;-86
2022/08/12 06:13:05;;;;;;;9.90;4.00;;;18.60;99.90;;;;;;5091256;28;20123;-87
2022/08/12 06:15:33;;;;;;;10.32;3.50;;;18.70;99.90;;;;;;5072743;28;20036;-83
2022/08/12 06:18:07;;;;;;;5.93;3.88;;;18.70;99.90;;;;;;5091067;28;20047;-82
2022/08/12 06:20:34;;;;;;;9.80;3.55;;;18.90;99.90;;;;;;5073407;28;20079;-86
2022/08/12 06:23:00;;;;;;;7.55;3.55;;;19.00;99.90;;;;;;5090658;28;20044;-87
2022/08/12 06:25:27;;;;;;;6.35;3.38;;;19.00;99.90;;;;;;5073242;28;20147;-85
2022/08/12 06:27:58;;;;;;;6.30;3.25;;;19.10;99.90;;;;;;5090968;28;20552;-85
2022/08/12 06:30:25;;;;;;;6.05;3.10;;;19.20;99.90;;;;;;5091339;28;20048;-88
2022/08/12 06:32:51;;;;;;;10.10;3.28;;;19.30;99.90;;;;;;5090838;28;20074;-87
2022/08/12 06:35:18;;;;;;;7.10;3.13;;;19.40;99.90;;;;;;5091043;28;20036;-83
2022/08/12 06:37:48;;;;;;;4.47;2.75;;;19.50;99.90;;;;;;5072639;28;20052;-86
2022/08/12 06:40:15;;;;;;;13.23;3.08;;;19.60;99.90;;;;;;5091029;28;20087;-84
2022/08/12 06:42:46;;;;;;;10.20;2.85;;;19.70;99.90;;;;;;5090727;28;20048;-82
2022/08/12 06:45:16;;;;;;;6.45;2.92;;;19.80;99.90;;;;;;5090305;28;20044;-81
2022/08/12 06:47:42;;;;;;;7.57;2.45;;;19.80;99.90;;;;;;5090466;28;20589;-84
2022/08/12 06:50:10;;;;;;;8.38;2.83;;;20.00;99.90;;;;;;5072625;28;20145;-86
2022/08/12 06:52:35;;;;;;;7.88;2.47;;;20.00;99.90;;;;;;5090430;28;20044;-83
2022/08/12 06:55:01;;;;;;;7.32;2.53;;;20.30;99.90;;;;;;5090750;28;20127;-83
2022/08/12 06:57:26;;;;;;;6.90;3.70;;;20.30;99.90;;;;;;5090221;28;20528;-83
2022/08/12 06:59:53;;;;;;;8.65;2.25;;;20.40;99.90;;;;;;5090051;28;20410;-83
2022/08/12 07:02:21;;;;;;;6.72;2.83;;;20.50;99.90;;;;;;5107063;28;20040;-85
2022/08/12 07:04:51;;;;;;;6.93;2.65;;;20.60;99.90;;;;;;5111308;28;20443;-84
2022/08/12 07:07:17;;;;;;;6.90;2.58;;;20.70;99.90;;;;;;5090504;28;20056;-82
2022/08/12 07:09:43;;;;;;;6.55;2.40;;;20.80;99.90;;;;;;5072565;28;20161;-88
2022/08/12 07:12:16;;;;;;;7.50;3.10;;;20.90;99.90;;;;;;5077563;28;20503;-81
2022/08/12 07:14:42;;;;;;;5.32;2.05;;;21.00;99.90;;;;;;5084930;28;20040;-80
2022/08/12 07:17:07;;;;;;;8.52;2.88;;;21.10;99.90;;;;;;5092957;28;20527;-78
2022/08/12 07:19:35;;;;;;;4.75;2.17;;;21.20;99.90;;;;;;5090760;28;20048;-86
2022/08/12 07:22:05;;;;;;;5.40;2.03;;;21.30;99.90;;;;;;5091247;28;20058;-80
2022/08/12 07:24:31;;;;;;;9.63;2.15;;;21.40;99.90;;;;;;5090366;28;20044;-77
2022/08/12 07:26:57;;;;;;;7.90;2.45;;;21.50;99.90;;;;;;5090664;28;20044;-77
2022/08/12 07:29:27;;;;;;;4.07;2.10;;;21.70;99.90;;;;;;5089172;28;20036;-76
2022/08/12 07:31:56;;;;;;;7.53;2.30;;;21.80;99.90;;;;;;5104218;28;20047;-79
2022/08/12 07:34:22;;;;;;;11.90;2.40;;;21.90;99.90;;;;;;5092453;28;20130;-79
2022/08/12 07:36:47;;;;;;;5.18;1.92;;;22.00;99.90;;;;;;5110828;28;20123;-79
2022/08/12 07:39:13;;;;;;;9.98;2.33;;;22.20;99.90;;;;;;5110894;28;20126;-78
2022/08/12 07:41:39;;;;;;;9.73;2.05;;;22.30;99.90;;;;;;5110725;28;20051;-78
2022/08/12 07:44:07;;;;;;;5.82;1.90;;;22.40;99.90;;;;;;5110450;28;20054;-80
2022/08/12 07:46:37;;;;;;;4.18;1.83;;;22.60;99.90;;;;;;5110161;28;20045;-79
2022/08/12 07:49:11;;;;;;;4.68;1.85;;;22.80;99.90;;;;;;5056713;28;20056;-76
2022/08/12 07:51:37;;;;;;;4.28;2.00;;;22.90;99.90;;;;;;5071838;28;20040;-76
2022/08/12 07:54:08;;;;;;;6.32;2.22;;;23.10;99.90;;;;;;5071605;28;20110;-78
2022/08/12 07:56:38;;;;;;;5.72;1.90;;;23.30;99.90;;;;;;5089383;28;20044;-79
2022/08/12 07:59:07;;;;;;;5.47;1.83;;;23.50;99.90;;;;;;5089488;28;20541;-78
2022/08/12 08:01:33;;;;;;;6.22;1.90;;;23.70;99.90;;;;;;5090093;28;20502;-81
2022/08/12 08:06:43;;;;;;;3.85;1.95;;;24.30;99.90;;;;;;5106851;28;20055;-79
2022/08/12 08:09:15;;;;;;;5.10;1.92;;;24.70;99.90;;;;;;5090189;28;20048;-77
2022/08/12 08:14:28;;;;;;;6.85;1.90;;;25.20;99.90;;;;;;5072075;28;20415;-78
2022/08/12 08:16:55;;;;;;;8.15;1.98;;;25.40;99.90;;;;;;5089488;28;20050;-79
2022/08/12 08:19:22;;;;;;;8.25;2.30;;;25.60;99.90;;;;;;5090338;28;20448;-80
2022/08/12 08:21:57;;;;;;;5.15;1.75;;;25.90;99.90;;;;;;5090090;28;20126;-79
2022/08/12 08:24:25;;;;;;;4.28;1.98;;;26.10;99.90;;;;;;5070431;28;20126;-81
2022/08/12 08:26:53;;;;;;;10.20;2.08;;;26.30;99.90;;;;;;5089554;28;20040;-78
2022/08/12 08:29:20;;;;;;;7.53;1.98;;;26.40;99.90;;;;;;5089502;28;20220;-78
2022/08/12 08:31:49;;;;;;;4.68;1.85;;;26.70;99.90;;;;;;5089226;28;20051;-76
2022/08/12 08:34:17;;;;;;;16.15;3.15;;;27.00;99.90;;;;;;5088701;28;20052;-76
2022/08/12 08:36:43;;;;;;;6.60;1.98;;;27.20;99.90;;;;;;5070958;28;20055;-76
2022/08/12 08:39:11;;;;;;;10.25;1.73;;;27.40;99.90;;;;;;5089348;28;20063;-79
2022/08/12 08:44:22;;;;;;;10.75;2.45;;;27.70;99.90;;;;;;5089386;28;20052;-74
2022/08/12 08:46:48;;;;;;;5.60;1.90;;;28.00;99.90;;;;;;5092544;28;20043;-77
2022/08/12 08:49:17;;;;;;;8.27;1.95;;;28.10;99.80;;;;;;5093101;28;20040;-75
2022/08/12 08:51:44;;;;;;;5.72;1.98;;;28.20;98.80;;;;;;5093324;28;20113;-80
2022/08/12 08:54:11;;;;;;;4.93;2.05;;;28.40;97.00;;;;;;5093217;28;20086;-79
2022/08/12 08:56:43;;;;;;;12.65;2.03;;;28.50;98.10;;;;;;5092822;28;20036;-79
2022/08/12 08:59:12;;;;;;;7.22;2.13;;;28.70;97.90;;;;;;5092900;28;20048;-80
2022/08/12 09:01:39;;;;;;;5.70;1.77;;;28.80;97.30;;;;;;5092836;28;20123;-80
2022/08/12 09:04:06;;;;;;;7.05;1.88;;;28.90;97.60;;;;;;5092788;28;20256;-79
2022/08/12 09:06:32;;;;;;;11.02;1.88;;;29.10;96.50;;;;;;5092949;28;20482;-77
2022/08/12 09:08:57;;;;;;;5.40;2.53;;;29.30;97.10;;;;;;5092985;28;20052;-77
2022/08/12 09:14:08;;;;;;;5.95;1.95;;;29.60;96.80;;;;;;5072559;28;20048;-81
2022/08/12 09:16:38;;;;;;;10.18;2.08;;;29.70;96.20;;;;;;5072245;28;20052;-80
2022/08/12 09:19:05;;;;;;;6.15;1.77;;;29.80;95.20;;;;;;5072213;28;20068;-80
2022/08/12 09:21:31;;;;;;;8.60;2.30;;;29.90;95.40;;;;;;5072358;28;20072;-79
2022/08/12 09:24:00;;;;;;;6.15;2.17;;;30.10;95.20;;;;;;5072332;28;20110;-82
2022/08/12 09:26:27;;;;;;;6.95;2.85;;;30.20;94.30;;;;;;5072335;28;20561;-81
2022/08/12 09:28:53;;;;;;;5.22;1.90;;;30.30;93.70;;;;;;5072104;28;20542;-79
2022/08/12 09:31:19;;;;;;;6.78;2.30;;;30.30;93.50;;;;;;5072580;28;20040;-81
2022/08/12 09:33:45;;;;;;;13.20;2.88;;;30.40;93.50;;;;;;5053778;28;20064;-82
2022/08/12 09:36:10;;;;;;;11.52;2.08;;;30.50;93.40;;;;;;5054304;28;20037;-85
2022/08/12 09:38:38;;;;;;;3.33;1.73;;;30.60;93.10;;;;;;5053846;28;20484;-82
2022/08/12 09:41:04;;;;;;;3.17;1.70;;;30.90;92.10;;;;;;5072075;28;20041;-83
2022/08/12 09:46:16;;;;;;;;;;;31.10;92.00;;;;;;5076524;28;20182;-81
2022/08/12 09:48:43;;;;;;;4.18;1.83;;;31.20;90.50;;;;;;5079951;28;19924;-80
2022/08/12 09:51:10;;;;;;;9.77;1.58;;;31.30;90.20;;;;;;5075128;28;20430;-80
2022/08/12 09:53:36;;;;;;;5.15;1.70;;;31.40;90.00;;;;;;5071697;28;20088;-82
2022/08/12 09:56:02;;;;;;;8.30;1.65;;;31.30;88.50;;;;;;5070832;28;20212;-81
2022/08/12 09:58:28;;;;;;;6.50;2.10;;;31.40;87.10;;;;;;5053754;28;20071;-82
2022/08/12 10:00:56;;;;;;;8.80;1.95;;;31.60;84.10;;;;;;5053378;28;20051;-81
2022/08/12 10:03:27;;;;;;;5.90;1.88;;;31.60;83.00;;;;;;5071396;28;20056;-81
2022/08/12 10:05:53;;;;;;;6.35;1.55;;;31.70;86.30;;;;;;5053090;28;20040;-83
2022/08/12 10:08:20;;;;;;;6.18;2.00;;;31.80;86.50;;;;;;5071311;28;20065;-85
2022/08/12 10:13:40;;;;;;;6.50;1.70;;;32.00;84.40;;;;;;5071426;28;20092;-81
2022/08/12 10:16:16;;;;;;;7.57;1.75;;;32.10;82.40;;;;;;5053188;28;20040;-82
2022/08/12 10:18:46;;;;;;;5.53;1.85;;;32.20;81.30;;;;;;5053195;28;20388;-80
2022/08/12 10:21:23;;;;;;;5.35;1.60;;;32.30;78.70;;;;;;5070922;28;20048;-79
2022/08/12 10:23:50;;;;;;;2.70;1.60;;;32.30;80.10;;;;;;5053013;28;20049;-81
2022/08/12 10:31:50;;;;;;;5.53;1.80;;;32.50;79.70;;;;;;5078529;28;20384;-82
2022/08/12 10:34:23;;;;;;;8.05;1.55;;;32.60;79.20;;;;;;5090364;28;20058;-85
2022/08/12 10:36:57;;;;;;;7.27;1.90;;;32.60;77.00;;;;;;5090611;28;20036;-79
2022/08/12 10:39:25;;;;;;;4.75;1.88;;;32.80;78.00;;;;;;5091142;28;20036;-84
2022/08/12 10:44:35;;;;;;;8.52;1.65;;;32.80;77.30;;;;;;5091025;28;20164;-76
2022/08/12 10:47:03;;;;;;;7.65;1.55;;;32.80;76.10;;;;;;5090637;28;20047;-76
2022/08/12 10:49:33;;;;;;;9.98;2.08;;;32.80;76.30;;;;;;5090930;28;20040;-76
2022/08/12 10:52:01;;;;;;;6.35;1.50;;;33.00;76.50;;;;;;5083145;28;20033;-83
2022/08/12 10:54:28;;;;;;;3.78;1.60;;;33.00;76.40;;;;;;5072546;28;20506;-81
2022/08/12 10:56:59;;;;;;;4.65;1.48;;;33.10;74.90;;;;;;5072663;28;20047;-80
2022/08/12 10:59:29;;;;;;;10.30;1.88;;;33.10;75.60;;;;;;5090414;28;20052;-87
2022/08/12 11:01:56;;;;;;;9.35;1.80;;;33.20;75.80;;;;;;5055641;28;20048;-79
2022/08/12 11:04:24;;;;;;;6.25;1.55;;;33.20;75.40;;;;;;5089975;28;20044;-81
2022/08/12 11:06:50;;;;;;;6.90;1.70;;;33.40;75.10;;;;;;5090418;28;20094;-82
2022/08/12 11:09:30;;;;;;;5.50;1.40;;;33.50;75.70;;;;;;5089462;28;20051;-83
2022/08/12 11:11:56;;;;;;;6.43;1.60;;;33.50;74.00;;;;;;5090455;28;20094;-83
2022/08/12 11:14:32;;;;;;;3.58;1.35;;;33.70;74.40;;;;;;5090494;28;20048;-80
2022/08/12 11:17:00;;;;;;;5.78;1.45;;;33.70;73.90;;;;;;5090655;28;20173;-80
2022/08/12 11:19:31;;;;;;;6.70;1.45;;;33.70;73.00;;;;;;5090770;28;20047;-81
2022/08/12 11:21:58;;;;;;;7.40;1.60;;;33.70;72.80;;;;;;5087273;28;20082;-81
2022/08/12 11:24:24;;;;;;;7.93;1.58;;;33.90;73.30;;;;;;5110156;28;20557;-79
2022/08/12 11:26:51;;;;;;;13.57;1.73;;;34.00;72.60;;;;;;5076459;28;20119;-82
2022/08/12 11:29:19;;;;;;;6.35;1.33;;;34.10;72.50;;;;;;5108939;28;20043;-84
2022/08/12 11:31:45;;;;;;;4.93;1.30;;;34.10;71.80;;;;;;5092031;28;20494;-81
2022/08/12 11:34:11;;;;;;;9.07;1.98;;;34.20;71.50;;;;;;5096032;28;20059;-80
2022/08/12 11:36:37;;;;;;;3.15;1.30;;;34.10;71.00;;;;;;5068554;28;20078;-81
2022/08/12 11:39:04;;;;;;;10.32;1.60;;;34.00;69.20;;;;;;5110290;28;20043;-82
2022/08/12 11:41:30;;;;;;;5.95;1.50;;;34.20;70.00;;;;;;5110200;28;20486;-82
2022/08/12 11:43:56;;;;;;;7.57;1.30;;;34.20;69.50;;;;;;5110694;28;20055;-83
2022/08/12 11:46:22;;;;;;;6.82;1.45;;;34.40;69.70;;;;;;5110833;28;20398;-79
2022/08/12 11:48:47;;;;;;;8.10;1.38;;;34.40;70.20;;;;;;5110463;28;20090;-86
2022/08/12 11:51:16;;;;;;;6.43;1.38;;;34.50;70.50;;;;;;5089842;28;20040;-81
2022/08/12 11:53:48;;;;;;;5.13;1.38;;;34.50;69.60;;;;;;5094814;28;20487;-80
2022/08/12 11:56:29;;;;;;;11.90;1.38;;;34.70;69.60;;;;;;5098237;28;20040;-84
2022/08/12 11:58:55;;;;;;;5.88;1.60;;;34.70;67.40;;;;;;5057251;28;20122;-81
2022/08/12 12:01:21;;;;;;;7.78;1.60;;;34.50;67.30;;;;;;5089527;28;20037;-81
2022/08/12 12:03:47;;;;;;;6.50;1.30;;;34.50;67.70;;;;;;5089911;28;20162;-82
2022/08/12 12:06:14;;;;;;;5.10;1.10;;;34.60;67.90;;;;;;5072050;28;20044;-81
2022/08/12 12:08:40;;;;;;;4.10;1.38;;;34.80;67.30;;;;;;5071607;28;20497;-79
2022/08/12 12:11:05;;;;;;;10.77;1.17;;;34.80;67.80;;;;;;5089283;28;20068;-83
2022/08/12 12:13:31;;;;;;;5.28;1.50;;;34.90;65.20;;;;;;5071587;28;20059;-81
2022/08/12 12:15:57;;;;;;;4.60;1.40;;;34.90;66.20;;;;;;5093768;28;20092;-81
2022/08/12 12:18:23;;;;;;;5.68;1.55;;;34.90;64.30;;;;;;5110451;28;20055;-82
2022/08/12 12:20:49;;;;;;;7.28;1.23;;;34.80;65.40;;;;;;5092783;28;20044;-82
2022/08/12 12:23:15;;;;;;;4.93;1.63;;;34.90;65.30;;;;;;5093442;28;20490;-80
2022/08/12 12:25:41;;;;;;;2.38;1.10;;;34.90;65.90;;;;;;5093293;28;20048;-84
2022/08/12 12:28:06;;;;;;;7.05;1.30;;;35.00;65.50;;;;;;5094390;28;20103;-81
2022/08/12 12:30:34;;;;;;;4.20;1.50;;;35.00;64.50;;;;;;5093391;28;20520;-81
2022/08/12 12:33:00;;;;;;;5.68;1.17;;;35.00;64.80;;;;;;5099371;28;20520;-81
2022/08/12 12:35:26;;;;;;;5.13;1.30;;;35.10;64.50;;;;;;5079049;28;20052;-81
2022/08/12 12:38:12;;;;;;;6.97;1.60;;;35.20;64.60;;;;;;5093122;28;20051;-79
2022/08/12 12:40:41;;;;;;;6.15;1.30;;;35.40;64.80;;;;;;5074456;28;20496;-83
2022/08/12 12:43:07;;;;;;;5.10;1.30;;;35.40;64.50;;;;;;5073884;28;20051;-79
2022/08/12 12:45:35;;;;;;;6.28;1.50;;;35.30;64.70;;;;;;5093289;28;20051;-74
2022/08/12 12:48:03;;;;;;;3.28;1.58;;;35.30;64.40;;;;;;5092853;28;20125;-75
2022/08/12 12:50:39;;;;;;;6.68;1.55;;;35.40;65.20;;;;;;5093167;28;20052;-85
2022/08/12 12:53:05;;;;;;;9.32;1.40;;;35.30;63.60;;;;;;5074539;28;20044;-79
2022/08/12 12:55:36;;;;;;;242.45;12.90;;;35.30;65.30;;;;;;5093305;28;20040;-82
2022/08/12 12:58:15;;;;;;;11.40;2.17;;;35.10;65.00;;;;;;5092500;28;20048;-88
2022/08/12 13:00:43;;;;;;;78.47;5.80;;;35.20;64.80;;;;;;5092946;28;20063;-83
2022/08/12 13:03:17;;;;;;;17.58;1.60;;;35.30;65.10;;;;;;5076131;28;20121;-83
2022/08/12 13:05:43;;;;;;;8.82;1.73;;;35.40;65.40;;;;;;5106848;28;20537;-85
2022/08/12 13:08:26;;;;;;;5.03;1.20;;;35.50;64.60;;;;;;5092816;28;20051;-83
2022/08/12 13:10:53;;;;;;;5.30;1.20;;;35.40;63.10;;;;;;5092915;28;20055;-88
2022/08/12 13:13:20;;;;;;;6.78;1.30;;;35.50;62.30;;;;;;5074088;28;20106;-81
2022/08/12 13:15:48;;;;;;;15.30;1.50;;;35.60;64.10;;;;;;5092643;28;20044;-85
2022/08/12 13:18:15;;;;;;;4.18;1.52;;;35.60;63.90;;;;;;5057184;28;20051;-86
2022/08/12 13:20:44;;;;;;;6.55;1.42;;;35.60;64.70;;;;;;5091881;28;20043;-81
2022/08/12 13:23:11;;;;;;;5.28;1.27;;;35.70;65.10;;;;;;5103061;28;20086;-85
2022/08/12 13:25:40;;;;;;;2.53;1.10;;;35.60;63.40;;;;;;5112598;28;20098;-81
2022/08/12 13:28:07;;;;;;;6.68;1.30;;;35.60;64.20;;;;;;5112371;28;20054;-83
2022/08/12 13:30:35;;;;;;;9.05;1.52;;;35.50;64.50;;;;;;5112637;28;20057;-84
2022/08/12 13:33:01;;;;;;;5.95;1.35;;;35.50;63.80;;;;;;5112652;28;20094;-83
2022/08/12 13:35:29;;;;;;;4.00;1.08;;;35.50;63.90;;;;;;5075441;28;20040;-87
2022/08/12 13:37:56;;;;;;;3.30;0.98;;;35.30;63.60;;;;;;5057341;28;20047;-87
2022/08/12 13:40:24;;;;;;;5.95;1.10;;;35.50;63.20;;;;;;5057046;28;20093;-82
2022/08/12 13:42:52;;;;;;;11.88;1.25;;;35.50;62.10;;;;;;5092478;28;20047;-84
2022/08/12 13:45:18;;;;;;;7.97;1.05;;;35.50;63.20;;;;;;5091424;28;20043;-86
2022/08/12 13:48:01;;;;;;;3.72;1.20;;;35.50;62.70;;;;;;5077452;28;20070;-88
2022/08/12 13:50:31;;;;;;;3.25;1.10;;;35.60;62.60;;;;;;5079842;28;20044;-83
2022/08/12 13:53:03;;;;;;;3.03;1.30;;;35.60;63.10;;;;;;5077774;28;20055;-85
2022/08/12 13:55:29;;;;;;;4.88;1.10;;;35.70;62.90;;;;;;5057503;28;20040;-83
2022/08/12 13:57:56;;;;;;;5.85;1.17;;;35.70;63.20;;;;;;5073499;28;20044;-87
2022/08/12 14:00:25;;;;;;;8.95;2.10;;;35.90;62.60;;;;;;5056551;28;20047;-83
2022/08/12 14:02:51;;;;;;;3.85;0.98;;;35.70;60.80;;;;;;5073407;28;20048;-86
2022/08/12 14:05:18;;;;;;;4.05;0.95;;;35.60;61.00;;;;;;5055437;28;20421;-83
2022/08/12 14:08:07;;;;;;;4.72;1.10;;;35.50;60.10;;;;;;5091511;28;20040;-87
2022/08/12 14:10:37;;;;;;;4.30;1.05;;;35.50;59.60;;;;;;5073216;28;20060;-86
2022/08/12 14:13:09;;;;;;;4.40;0.80;;;35.40;60.80;;;;;;5091786;28;20059;-84
2022/08/12 14:15:37;;;;;;;9.57;1.20;;;35.40;60.70;;;;;;5091774;28;20527;-84
2022/08/12 14:18:33;;;;;;;9.25;1.23;;;35.30;60.90;;;;;;5111716;28;20509;-85
2022/08/12 14:21:10;;;;;;;7.57;1.20;;;35.40;61.80;;;;;;4980044;28;20562;-89
2022/08/12 14:23:49;;;;;;;7.55;1.10;;;35.50;60.70;;;;;;4957128;28;20050;-90
2022/08/12 14:26:27;;;;;;;5.57;0.95;;;35.50;61.30;;;;;;4973189;28;20050;-91
2022/08/12 14:29:03;;;;;;;3.80;1.00;;;35.40;61.50;;;;;;4989351;28;20060;-87
2022/08/12 14:31:36;;;;;;;13.00;1.35;;;35.50;61.10;;;;;;4956009;28;20050;-87
2022/08/12 14:34:02;;;;;;;6.57;1.10;;;35.50;60.80;;;;;;4988917;28;20046;-86
2022/08/12 14:36:27;;;;;;;3.00;1.20;;;35.20;61.30;;;;;;4972520;28;20823;-85
2022/08/12 14:39:03;;;;;;;11.00;1.30;;;35.30;61.70;;;;;;4956543;28;20068;-85
2022/08/12 14:41:33;;;;;;;3.63;1.00;;;35.20;62.00;;;;;;4956570;28;20085;-83
2022/08/12 14:44:03;;;;;;;3.75;1.20;;;35.30;61.90;;;;;;4962484;28;20054;-88
2022/08/12 14:46:28;;;;;;;5.32;1.30;;;35.40;62.40;;;;;;4955782;28;20509;-86